Dover, New Hampshire
Current Conditions -  °F | °C
As of 3:51 PM on Saturday 22 Nov 2014 (Local Time) from KDAW Reporting Station
Clear Clear  
Wind Chill: 34°   Ceiling: Unl
Heat Index: 34°   Visibility: 10mi
Dew Point: 10°   Wind: 3mph
Humidity: 37%   Direction: NA
Pressure: 30.08"   Gusts: NA
Location:  43.19°N, 70.87°W
Report Text: KDAW 222051Z AUTO VRB03KT 10SM CLR 01/M12 A3008 RMK AO2 SLP187 T00111122 56026
Loading
Personal Weather Stations






























Interactive Weather Map New forecast layout! Learn more

10-Day Weather Forecast

Advertisements
Track Severe Weather on mobile